createdAt,value
2023-11-28T00:00:39.096Z,55.80
2023-11-28T00:03:06.348Z,55.93
2023-11-28T00:05:33.401Z,55.84
2023-11-28T00:08:01.123Z,55.52
2023-11-28T00:10:28.241Z,55.68
2023-11-28T00:12:55.245Z,55.50
2023-11-28T00:15:22.698Z,55.37
2023-11-28T00:17:50.018Z,54.84
2023-11-28T00:20:17.107Z,53.60
2023-11-28T00:22:44.078Z,53.28
2023-11-28T00:25:11.107Z,53.34
2023-11-28T00:27:38.858Z,53.54
2023-11-28T00:30:06.636Z,53.53
2023-11-28T00:32:33.713Z,53.62
2023-11-28T00:35:01.227Z,53.35
2023-11-28T00:37:28.297Z,53.14
2023-11-28T00:39:55.525Z,53.14
2023-11-28T00:42:22.980Z,53.36
2023-11-28T00:44:49.820Z,53.52
2023-11-28T00:47:16.594Z,53.45
2023-11-28T00:49:43.964Z,53.56
2023-11-28T00:52:12.212Z,53.64
2023-11-28T00:54:39.449Z,53.80
2023-11-28T00:57:08.221Z,53.64
2023-11-28T00:59:36.387Z,53.55
2023-11-28T01:02:06.959Z,53.98
2023-11-28T01:04:35.893Z,54.00
2023-11-28T01:07:02.993Z,54.04
2023-11-28T01:09:30.241Z,54.00
2023-11-28T01:11:57.165Z,54.32
2023-11-28T01:14:24.109Z,55.62
2023-11-28T01:16:51.316Z,56.00
2023-11-28T01:19:18.305Z,55.56
2023-11-28T01:21:45.768Z,55.88
2023-11-28T01:24:12.707Z,55.86
2023-11-28T01:26:39.649Z,55.80
2023-11-28T01:29:07.067Z,55.95
2023-11-28T01:31:34.016Z,55.94
2023-11-28T01:34:00.895Z,56.06
2023-11-28T01:36:28.161Z,56.38
2023-11-28T01:38:55.002Z,56.39
2023-11-28T01:41:22.031Z,56.08
2023-11-28T01:43:49.023Z,54.98
2023-11-28T01:46:16.227Z,54.27
2023-11-28T01:48:43.315Z,54.31
2023-11-28T01:51:10.532Z,54.14
2023-11-28T01:53:37.790Z,54.19
2023-11-28T01:56:05.179Z,54.11
2023-11-28T01:58:32.274Z,54.02
2023-11-28T02:01:00.570Z,53.76
2023-11-28T02:03:27.979Z,53.70
2023-11-28T02:05:55.790Z,53.76
2023-11-28T02:08:22.724Z,53.68
2023-11-28T02:10:50.455Z,53.79
2023-11-28T02:13:17.532Z,53.67
2023-11-28T02:15:45.759Z,53.40
2023-11-28T02:18:13.950Z,53.28
2023-11-28T02:20:41.250Z,53.36
2023-11-28T02:23:08.558Z,53.15
2023-11-28T02:25:42.025Z,53.16
2023-11-28T02:28:08.948Z,53.93
2023-11-28T02:30:36.207Z,54.33
2023-11-28T02:33:03.404Z,54.26
2023-11-28T02:35:30.397Z,54.11
2023-11-28T02:37:57.487Z,53.44
2023-11-28T02:40:24.485Z,52.55
2023-11-28T02:42:51.928Z,52.39
2023-11-28T02:45:18.765Z,52.22
2023-11-28T02:47:45.869Z,52.18
2023-11-28T02:50:13.173Z,51.83
2023-11-28T02:52:40.941Z,51.84
2023-11-28T02:55:08.522Z,51.74
2023-11-28T02:57:35.768Z,51.88
2023-11-28T03:00:05.662Z,51.91
2023-11-28T03:02:35.146Z,51.83
2023-11-28T03:05:03.209Z,51.84
2023-11-28T03:07:30.588Z,51.60
2023-11-28T03:09:57.401Z,51.76
2023-11-28T03:12:24.268Z,52.58
2023-11-28T03:14:51.071Z,53.03
2023-11-28T03:17:18.406Z,53.35
2023-11-28T03:19:45.656Z,53.55
2023-11-28T03:22:12.441Z,53.78
2023-11-28T03:24:40.834Z,54.08
2023-11-28T03:27:07.891Z,54.13
2023-11-28T03:29:36.698Z,54.06
2023-11-28T03:32:04.831Z,53.20
2023-11-28T03:34:31.811Z,52.69
2023-11-28T03:36:58.965Z,52.17
2023-11-28T03:39:25.670Z,51.90
2023-11-28T03:41:52.430Z,51.90
2023-11-28T03:44:19.973Z,51.82
2023-11-28T03:46:46.888Z,51.94
2023-11-28T03:49:13.961Z,51.89
2023-11-28T03:51:41.031Z,51.77
2023-11-28T03:54:07.961Z,51.84
2023-11-28T03:56:35.211Z,51.91
2023-11-28T03:59:03.082Z,52.02
2023-11-28T04:01:30.287Z,52.00
2023-11-28T04:03:57.581Z,52.28
2023-11-28T04:06:24.550Z,52.44
2023-11-28T04:08:53.774Z,52.55
2023-11-28T04:11:20.592Z,52.63
2023-11-28T04:13:47.911Z,52.81
2023-11-28T04:16:18.637Z,52.93
2023-11-28T04:18:50.951Z,52.93
2023-11-28T04:21:22.256Z,52.91
2023-11-28T04:23:49.329Z,52.75
2023-11-28T04:26:16.967Z,52.89
2023-11-28T04:28:44.504Z,52.86
2023-11-28T04:31:18.243Z,52.85
2023-11-28T04:33:47.739Z,52.84
2023-11-28T04:36:15.690Z,52.88
2023-11-28T04:38:45.312Z,52.65
2023-11-28T04:41:14.393Z,52.19
2023-11-28T04:43:42.285Z,51.91
2023-11-28T04:46:09.668Z,52.00
2023-11-28T04:48:36.924Z,52.19
2023-11-28T04:51:04.413Z,52.05
2023-11-28T04:53:31.343Z,51.97
2023-11-28T04:55:58.277Z,51.95
2023-11-28T04:58:25.785Z,51.89
2023-11-28T05:00:53.138Z,51.80
2023-11-28T05:03:20.822Z,51.64
2023-11-28T05:05:47.952Z,51.64
2023-11-28T05:08:14.956Z,51.63
2023-11-28T05:10:42.300Z,51.56
2023-11-28T05:13:10.381Z,51.41
2023-11-28T05:15:37.371Z,51.40
2023-11-28T05:18:05.689Z,51.25
2023-11-28T05:20:32.754Z,51.20
2023-11-28T05:22:59.876Z,51.07
2023-11-28T05:25:28.016Z,50.87
2023-11-28T05:27:56.754Z,50.78
2023-11-28T05:30:23.951Z,50.58
2023-11-28T05:32:50.921Z,50.48
2023-11-28T05:35:18.441Z,50.48
2023-11-28T05:37:45.443Z,50.44
2023-11-28T05:40:12.647Z,50.46
2023-11-28T05:42:40.428Z,50.35
2023-11-28T05:45:07.590Z,50.27
2023-11-28T05:47:34.877Z,50.33
2023-11-28T05:50:01.804Z,50.28
2023-11-28T05:52:30.335Z,50.24
2023-11-28T05:54:57.587Z,50.42
2023-11-28T05:57:24.585Z,50.52
2023-11-28T05:59:52.006Z,50.70
2023-11-28T06:02:19.024Z,50.62
2023-11-28T06:04:47.253Z,50.47
2023-11-28T06:07:14.145Z,50.10
2023-11-28T06:09:41.301Z,49.99
2023-11-28T06:12:08.697Z,49.99
2023-11-28T06:14:36.626Z,49.94
2023-11-28T06:17:03.797Z,50.01
2023-11-28T06:19:30.718Z,50.02
2023-11-28T06:21:57.498Z,49.98
2023-11-28T06:24:25.221Z,50.12
2023-11-28T06:26:52.195Z,50.31
2023-11-28T06:29:19.877Z,50.32
2023-11-28T06:31:46.918Z,50.34
2023-11-28T06:34:13.926Z,50.32
2023-11-28T06:36:41.108Z,50.37
2023-11-28T06:39:08.127Z,50.20
2023-11-28T06:41:35.378Z,50.29
2023-11-28T06:44:04.038Z,50.30
2023-11-28T06:46:31.801Z,50.36
2023-11-28T06:48:58.868Z,50.47
2023-11-28T06:51:27.343Z,50.68
2023-11-28T06:53:55.020Z,50.92
2023-11-28T06:56:21.997Z,50.92
2023-11-28T06:58:49.055Z,50.96
2023-11-28T07:01:17.166Z,51.12
2023-11-28T07:03:44.285Z,51.27
2023-11-28T07:06:11.477Z,51.16
2023-11-28T07:08:38.422Z,51.21
2023-11-28T07:11:06.169Z,51.23
2023-11-28T07:13:35.422Z,51.48
2023-11-28T07:16:03.368Z,51.45
2023-11-28T07:18:30.591Z,51.40
2023-11-28T07:20:57.441Z,51.37
2023-11-28T07:23:24.373Z,51.12
2023-11-28T07:25:51.895Z,51.04
2023-11-28T07:28:18.784Z,50.92
2023-11-28T07:30:46.759Z,51.04
2023-11-28T07:33:14.225Z,51.18
2023-11-28T07:35:41.162Z,51.60
2023-11-28T07:38:08.620Z,51.65
2023-11-28T07:40:35.710Z,51.54
2023-11-28T07:43:04.745Z,51.76
2023-11-28T07:45:33.133Z,51.84
2023-11-28T07:48:00.118Z,51.90
2023-11-28T07:50:28.239Z,52.06
2023-11-28T07:52:55.413Z,51.83
2023-11-28T07:55:22.439Z,51.99
2023-11-28T07:57:49.684Z,52.13
2023-11-28T08:00:17.151Z,51.74
2023-11-28T08:02:44.400Z,51.66
2023-11-28T08:05:15.254Z,51.55
2023-11-28T08:07:44.736Z,51.44
2023-11-28T08:10:12.351Z,51.38
2023-11-28T08:12:39.647Z,51.23
2023-11-28T08:15:08.070Z,50.88
2023-11-28T08:17:35.199Z,50.47
2023-11-28T08:20:03.485Z,50.62
2023-11-28T08:22:31.009Z,50.72
2023-11-28T08:25:01.331Z,50.59
2023-11-28T08:27:28.723Z,50.53
2023-11-28T08:29:55.964Z,50.52
2023-11-28T08:32:23.014Z,50.19
2023-11-28T08:34:50.163Z,49.41
2023-11-28T08:37:17.097Z,49.30
2023-11-28T08:39:44.423Z,49.32
2023-11-28T08:42:11.872Z,49.15
2023-11-28T08:44:39.083Z,48.78
2023-11-28T08:47:06.568Z,48.52
2023-11-28T08:49:33.661Z,48.23
2023-11-28T08:52:02.864Z,48.05
2023-11-28T08:54:30.961Z,47.50
2023-11-28T08:56:58.189Z,47.21
2023-11-28T08:59:25.162Z,47.67
2023-11-28T09:01:52.563Z,47.77
2023-11-28T09:04:20.297Z,47.74
2023-11-28T09:06:47.170Z,47.41
2023-11-28T09:09:14.285Z,47.16
2023-11-28T09:11:41.797Z,47.46
2023-11-28T09:14:10.019Z,47.40
2023-11-28T09:16:39.043Z,47.22
2023-11-28T09:19:06.093Z,47.37
2023-11-28T09:21:33.269Z,47.21
2023-11-28T09:24:00.203Z,47.11
2023-11-28T09:26:27.639Z,46.90
2023-11-28T09:28:55.540Z,46.80
2023-11-28T09:31:26.982Z,46.92
2023-11-28T09:33:53.867Z,46.46
2023-11-28T09:36:21.295Z,46.15
2023-11-28T09:38:49.069Z,46.09
2023-11-28T09:41:20.326Z,46.33
2023-11-28T09:43:49.175Z,46.82
2023-11-28T09:46:16.238Z,47.13
2023-11-28T09:48:43.714Z,47.45
2023-11-28T09:51:10.740Z,46.98
2023-11-28T09:53:38.254Z,46.92
2023-11-28T09:56:06.073Z,47.10
2023-11-28T09:58:33.393Z,47.33
2023-11-28T10:01:03.809Z,47.94
2023-11-28T10:03:30.921Z,48.32
2023-11-28T10:05:59.608Z,47.95
2023-11-28T10:08:27.731Z,47.60
2023-11-28T10:10:54.725Z,47.41
2023-11-28T10:13:21.921Z,47.75
2023-11-28T10:15:55.451Z,47.94
2023-11-28T10:18:23.060Z,47.99
2023-11-28T10:20:50.543Z,48.01
2023-11-28T10:23:18.409Z,48.50
2023-11-28T10:25:45.670Z,49.17
2023-11-28T10:28:13.512Z,49.46
2023-11-28T10:30:41.401Z,49.69
2023-11-28T10:33:08.684Z,49.61
2023-11-28T10:35:43.058Z,49.66
2023-11-28T10:38:17.388Z,49.95
2023-11-28T10:40:47.921Z,49.60
2023-11-28T10:43:14.938Z,49.41
2023-11-28T10:45:43.442Z,49.55
2023-11-28T10:48:12.950Z,49.74
2023-11-28T10:50:43.872Z,49.86
2023-11-28T10:53:14.839Z,49.94
2023-11-28T10:55:43.436Z,49.90
2023-11-28T10:58:17.418Z,49.63
2023-11-28T11:00:53.585Z,49.51
2023-11-28T11:03:24.977Z,49.53
2023-11-28T11:05:52.042Z,49.50
2023-11-28T11:08:19.410Z,49.38
2023-11-28T11:10:46.481Z,49.54
2023-11-28T11:13:38.298Z,49.61
2023-11-28T11:16:12.691Z,49.52
2023-11-28T11:18:42.013Z,49.39
2023-11-28T11:21:29.332Z,49.32
2023-11-28T11:23:57.182Z,49.35
2023-11-28T11:26:40.841Z,49.28
2023-11-28T11:29:26.346Z,49.19
2023-11-28T11:31:57.256Z,49.12
2023-11-28T11:34:37.491Z,48.93
2023-11-28T11:37:18.400Z,48.94
2023-11-28T11:39:46.413Z,49.08
2023-11-28T11:42:13.829Z,48.34
2023-11-28T11:44:42.386Z,47.71
2023-11-28T11:47:23.147Z,47.75
2023-11-28T11:49:52.051Z,47.66
2023-11-28T11:52:21.111Z,47.87
2023-11-28T11:54:48.906Z,47.97
2023-11-28T11:57:16.259Z,48.08
2023-11-28T11:59:43.417Z,47.79
2023-11-28T12:02:11.131Z,47.90
2023-11-28T12:04:43.344Z,48.05
2023-11-28T12:07:12.587Z,48.30
2023-11-28T12:09:40.696Z,48.46
2023-11-28T12:12:09.590Z,48.71
2023-11-28T12:14:37.571Z,48.67
2023-11-28T12:17:04.979Z,48.75
2023-11-28T12:19:33.133Z,48.88
2023-11-28T12:22:04.957Z,48.98
2023-11-28T12:24:32.758Z,49.35
2023-11-28T12:27:06.721Z,49.71
2023-11-28T12:29:35.170Z,49.97
2023-11-28T12:32:02.489Z,50.25
2023-11-28T12:34:30.532Z,50.37
2023-11-28T12:36:58.402Z,50.57
2023-11-28T12:39:27.437Z,50.84
2023-11-28T12:41:55.403Z,51.10
2023-11-28T12:44:29.794Z,51.14
2023-11-28T12:46:57.750Z,51.19
2023-11-28T12:49:25.813Z,51.09
2023-11-28T12:51:57.462Z,50.99
2023-11-28T12:54:26.352Z,51.26
2023-11-28T12:56:53.992Z,51.27
2023-11-28T12:59:21.922Z,51.47
2023-11-28T13:01:49.652Z,51.61
2023-11-28T13:04:17.575Z,51.57
2023-11-28T13:06:59.909Z,51.81
2023-11-28T13:09:36.401Z,51.87
2023-11-28T13:12:04.335Z,52.03
2023-11-28T13:14:31.601Z,52.19
2023-11-28T13:17:06.435Z,52.47
2023-11-28T13:19:35.865Z,52.86
2023-11-28T13:22:04.403Z,53.08
2023-11-28T13:24:32.714Z,53.00
2023-11-28T13:26:59.839Z,52.98
2023-11-28T13:29:26.939Z,53.14
2023-11-28T13:31:56.188Z,53.23
2023-11-28T13:34:23.948Z,53.25
2023-11-28T13:36:51.513Z,53.25
2023-11-28T13:39:18.865Z,53.34
2023-11-28T13:41:45.824Z,53.35
2023-11-28T13:44:12.942Z,53.38
2023-11-28T13:46:40.133Z,53.33
2023-11-28T13:49:07.208Z,53.25
2023-11-28T13:51:35.632Z,53.26
2023-11-28T13:54:03.712Z,53.27
2023-11-28T13:56:31.119Z,53.33
2023-11-28T13:58:59.764Z,53.33
2023-11-28T14:01:26.993Z,53.37
2023-11-28T14:03:56.194Z,53.47
2023-11-28T14:06:23.258Z,53.43
2023-11-28T14:08:50.287Z,53.49
2023-11-28T14:11:17.409Z,53.45
2023-11-28T14:13:44.696Z,53.33
2023-11-28T14:16:11.953Z,53.31
2023-11-28T14:18:39.184Z,53.37
2023-11-28T14:21:09.240Z,53.55
2023-11-28T14:23:37.474Z,53.52
2023-11-28T14:26:04.863Z,53.39
2023-11-28T14:28:32.144Z,53.31
2023-11-28T14:30:59.356Z,53.33
2023-11-28T14:33:29.619Z,53.37
2023-11-28T14:35:57.047Z,53.41
2023-11-28T14:38:24.446Z,53.09
2023-11-28T14:40:51.908Z,53.02
2023-11-28T14:43:19.011Z,53.01
2023-11-28T14:45:45.932Z,53.06
2023-11-28T14:48:13.190Z,52.93
2023-11-28T14:50:40.832Z,52.90
2023-11-28T14:53:11.943Z,52.81
2023-11-28T14:55:41.236Z,52.77
2023-11-28T14:58:08.322Z,52.77
2023-11-28T15:00:35.173Z,52.86
2023-11-28T15:03:05.330Z,52.91
2023-11-28T15:05:33.503Z,53.01
2023-11-28T15:08:00.671Z,52.91
2023-11-28T15:10:27.969Z,52.76
2023-11-28T15:12:57.880Z,52.58
2023-11-28T15:15:25.022Z,52.66
2023-11-28T15:17:52.246Z,52.80
2023-11-28T15:20:19.435Z,52.76
2023-11-28T15:22:46.624Z,52.80
2023-11-28T15:25:13.644Z,52.77
2023-11-28T15:27:41.187Z,52.84
2023-11-28T15:30:11.829Z,52.83
2023-11-28T15:32:39.906Z,52.92
2023-11-28T15:35:11.736Z,52.89
2023-11-28T15:37:40.025Z,52.93
2023-11-28T15:40:09.376Z,52.90
2023-11-28T15:42:37.087Z,52.94
2023-11-28T15:45:04.975Z,52.25
2023-11-28T15:47:35.243Z,51.78
2023-11-28T15:50:06.258Z,51.84
2023-11-28T15:52:33.765Z,52.79
2023-11-28T15:55:00.923Z,52.90
2023-11-28T15:57:32.070Z,52.94
2023-11-28T15:59:59.422Z,53.03
2023-11-28T16:02:32.827Z,53.18
2023-11-28T16:05:00.955Z,53.27
2023-11-28T16:07:28.233Z,53.14
2023-11-28T16:09:55.196Z,53.06
2023-11-28T16:12:22.557Z,52.98
2023-11-28T16:14:50.852Z,52.28
2023-11-28T16:17:18.288Z,51.82
2023-11-28T16:19:45.730Z,51.53
2023-11-28T16:22:12.872Z,51.35
2023-11-28T16:24:39.814Z,51.34
2023-11-28T16:27:06.890Z,51.35
2023-11-28T16:29:35.485Z,51.30
2023-11-28T16:32:03.150Z,51.17
2023-11-28T16:34:30.460Z,51.17
2023-11-28T16:36:57.432Z,51.26
2023-11-28T16:39:24.455Z,51.25
2023-11-28T16:41:51.305Z,50.98
2023-11-28T16:44:18.345Z,50.92
2023-11-28T16:46:45.569Z,50.91
2023-11-28T16:49:12.976Z,50.88
2023-11-28T16:51:40.411Z,51.02
2023-11-28T16:54:07.471Z,51.07
2023-11-28T16:56:34.761Z,51.12
2023-11-28T16:59:01.995Z,51.02
2023-11-28T17:01:30.531Z,50.92
2023-11-28T17:03:57.711Z,50.83
2023-11-28T17:06:26.238Z,50.77
2023-11-28T17:08:54.542Z,50.88
2023-11-28T17:11:21.573Z,50.89
2023-11-28T17:13:48.638Z,50.99
2023-11-28T17:16:15.585Z,51.00
2023-11-28T17:18:42.790Z,51.06
2023-11-28T17:21:17.446Z,51.17
2023-11-28T17:23:47.909Z,51.35
2023-11-28T17:26:16.286Z,51.49
2023-11-28T17:28:44.052Z,51.59
2023-11-28T17:31:11.631Z,51.48
2023-11-28T17:33:38.839Z,51.53
2023-11-28T17:36:06.359Z,51.63
2023-11-28T17:38:33.394Z,51.64
2023-11-28T17:41:00.520Z,51.73
2023-11-28T17:43:27.643Z,51.96
2023-11-28T17:45:54.799Z,52.07
2023-11-28T17:48:22.057Z,52.22
2023-11-28T17:50:49.619Z,52.40
2023-11-28T17:53:17.004Z,52.44
2023-11-28T17:55:44.617Z,52.67
2023-11-28T17:58:12.068Z,52.67
2023-11-28T18:00:40.036Z,52.69
2023-11-28T18:03:07.227Z,52.63
2023-11-28T18:05:37.085Z,52.62
2023-11-28T18:08:05.095Z,52.58
2023-11-28T18:10:32.860Z,52.65
2023-11-28T18:13:01.926Z,52.79
2023-11-28T18:15:32.797Z,52.89
2023-11-28T18:18:01.554Z,53.05
2023-11-28T18:20:29.087Z,53.09
2023-11-28T18:22:56.870Z,53.22
2023-11-28T18:25:24.031Z,53.33
2023-11-28T18:27:51.192Z,53.48
2023-11-28T18:30:19.046Z,53.59
2023-11-28T18:32:47.400Z,53.90
2023-11-28T18:35:16.032Z,54.01
2023-11-28T18:37:43.250Z,53.89
2023-11-28T18:40:13.362Z,53.88
2023-11-28T18:42:41.089Z,53.86
2023-11-28T18:45:09.842Z,53.94
2023-11-28T18:47:37.531Z,54.03
2023-11-28T18:50:05.613Z,54.21
2023-11-28T18:52:32.616Z,54.39
2023-11-28T18:55:00.050Z,54.52
2023-11-28T18:57:27.719Z,54.56
2023-11-28T18:59:55.377Z,54.70
2023-11-28T19:02:22.995Z,54.88
2023-11-28T19:04:51.515Z,55.05
2023-11-28T19:07:18.675Z,55.15
2023-11-28T19:09:47.165Z,55.18
2023-11-28T19:12:14.908Z,55.23
2023-11-28T19:14:43.947Z,55.29
2023-11-28T19:17:11.105Z,55.40
2023-11-28T19:19:41.096Z,55.62
2023-11-28T19:22:08.327Z,55.70
2023-11-28T19:24:36.191Z,55.78
2023-11-28T19:27:03.958Z,55.85
2023-11-28T19:29:31.068Z,55.99
2023-11-28T19:31:58.195Z,56.05
2023-11-28T19:34:25.803Z,56.10
2023-11-28T19:36:53.176Z,56.11
2023-11-28T19:39:20.409Z,56.19
2023-11-28T19:41:47.692Z,56.30
2023-11-28T19:44:17.114Z,56.33
2023-11-28T19:46:44.199Z,56.36
2023-11-28T19:49:11.477Z,56.38
2023-11-28T19:51:38.522Z,56.40
2023-11-28T19:54:05.563Z,56.58
2023-11-28T19:56:32.644Z,56.63
2023-11-28T19:59:03.176Z,56.64
2023-11-28T20:01:30.485Z,56.79
2023-11-28T20:03:57.683Z,56.90
2023-11-28T20:06:25.526Z,56.93
2023-11-28T20:08:53.577Z,57.02
2023-11-28T20:11:20.550Z,56.97
2023-11-28T20:13:47.689Z,56.90
2023-11-28T20:16:14.850Z,56.94
2023-11-28T20:18:42.070Z,56.82
2023-11-28T20:21:09.439Z,56.79
2023-11-28T20:23:36.547Z,56.88
2023-11-28T20:26:04.125Z,56.93
2023-11-28T20:28:31.807Z,56.90
2023-11-28T20:30:58.991Z,56.90
2023-11-28T20:33:26.242Z,56.91
2023-11-28T20:35:53.356Z,56.95
